Time;durP1;ratioP1;P1;durP2;ratioP2;P2;SDS_P1;SDS_P2;PMS_P1;PMS_P2;Temp;Humidity;BMP_temperature;BMP_pressure;BME280_temperature;BME280_humidity;BME280_pressure;Samples;Min_cycle;Max_cycle;Signal;HPM_P1;HPM_P2
2022/11/28 00:00:07;;;;;;;11.87;7.90;;;;;;;-3.75;98.87;103398.00;4979573;28;20024;-70
2022/11/28 00:02:32;;;;;;;12.38;6.85;;;;;;;-3.61;98.21;103408.34;4979350;28;20538;-72
2022/11/28 00:05:02;;;;;;;12.37;6.87;;;;;;;-3.63;98.24;103402.28;4979463;28;20145;-71
2022/11/28 00:07:29;;;;;;;13.52;7.22;;;;;;;-3.70;98.13;103395.38;4980717;28;20356;-69
2022/11/28 00:09:54;;;;;;;12.23;7.40;;;;;;;-3.66;98.43;103401.44;4980219;28;20030;-70
2022/11/28 00:12:20;;;;;;;9.57;6.50;;;;;;;-3.83;98.39;103372.84;4979403;28;20030;-71
2022/11/28 00:14:45;;;;;;;13.63;7.63;;;;;;;-3.72;98.41;103373.69;4979524;28;20042;-71
2022/11/28 00:17:11;;;;;;;9.80;7.70;;;;;;;-3.52;98.10;103395.25;4979379;28;20135;-71
2022/11/28 00:19:36;;;;;;;11.17;7.90;;;;;;;-3.61;97.70;103397.94;4979340;28;20050;-72
2022/11/28 00:22:02;;;;;;;10.53;7.50;;;;;;;-3.68;98.13;103396.22;4979089;28;20034;-71
2022/11/28 00:24:27;;;;;;;12.13;8.13;;;;;;;-3.77;98.28;103393.66;4979388;28;20199;-70
2022/11/28 00:26:53;;;;;;;14.20;8.10;;;;;;;-3.83;98.63;103389.34;4979541;28;20085;-72
2022/11/28 00:29:18;;;;;;;11.43;7.13;;;;;;;-3.84;98.26;103391.94;4961731;28;20374;-71
2022/11/28 00:31:44;;;;;;;10.83;8.10;;;;;;;-3.89;98.64;103396.31;4979356;28;20031;-71
2022/11/28 00:34:11;;;;;;;10.67;7.83;;;;;;;-3.87;98.62;103394.56;4979147;28;20018;-71
2022/11/28 00:36:37;;;;;;;17.30;8.65;;;;;;;-3.86;99.19;103397.16;4978814;28;20058;-70
2022/11/28 00:39:03;;;;;;;16.03;9.60;;;;;;;-3.79;98.85;103403.19;4976906;28;20079;-71
2022/11/28 00:41:29;;;;;;;12.50;8.43;;;;;;;-3.86;98.51;103391.94;4976131;28;20115;-71
2022/11/28 00:43:56;;;;;;;13.68;7.72;;;;;;;-3.85;98.83;103392.81;4976128;28;20058;-71
2022/11/28 00:46:23;;;;;;;9.05;6.75;;;;;;;-3.79;98.94;103392.78;4976483;28;20066;-72
2022/11/28 00:48:49;;;;;;;11.18;6.60;;;;;;;-3.81;98.79;103384.13;4976063;28;20078;-71
2022/11/28 00:51:21;;;;;;;13.80;8.90;;;;;;;-3.90;99.10;103373.75;4975820;28;20482;-71
2022/11/28 00:53:49;;;;;;;10.00;7.07;;;;;;;-3.77;99.02;103386.69;4976270;28;20022;-72
2022/11/28 00:56:17;;;;;;;7.95;7.05;;;;;;;-3.67;99.10;103403.16;4975805;28;20085;-71
2022/11/28 00:58:43;;;;;;;12.37;7.10;;;;;;;-3.67;98.42;103400.56;4975899;28;20031;-71
2022/11/28 01:01:11;;;;;;;9.27;6.37;;;;;;;-3.73;98.54;103398.00;4975631;28;20309;-71
2022/11/28 01:03:37;;;;;;;11.00;6.60;;;;;;;-3.70;97.93;103408.41;4975588;28;20470;-71
2022/11/28 01:06:04;;;;;;;8.85;7.32;;;;;;;-3.68;98.93;103406.66;4975844;28;20471;-71
2022/11/28 01:08:31;;;;;;;11.43;7.53;;;;;;;-3.72;98.30;103399.72;4990576;28;20037;-72
2022/11/28 01:10:58;;;;;;;11.53;7.10;;;;;;;-3.71;98.38;103406.66;4975630;28;20118;-72
2022/11/28 01:13:23;;;;;;;12.75;7.82;;;;;;;-3.68;98.97;103397.97;4975409;28;20069;-73
2022/11/28 01:15:49;;;;;;;10.10;7.80;;;;;;;-3.68;98.28;103404.03;4975381;28;20101;-72
2022/11/28 01:18:14;;;;;;;10.13;7.03;;;;;;;-3.76;98.79;103398.88;4975319;28;20026;-71
2022/11/28 01:20:40;;;;;;;10.60;7.17;;;;;;;-3.78;98.41;103402.34;4958068;28;20041;-71
2022/11/28 01:23:05;;;;;;;8.60;6.70;;;;;;;-3.86;99.08;103406.72;4975430;28;20035;-71
2022/11/28 01:25:31;;;;;;;10.50;6.27;;;;;;;-3.87;98.62;103394.56;4975312;28;20379;-71
2022/11/28 01:27:57;;;;;;;9.23;7.00;;;;;;;-3.91;99.08;103387.66;4975330;28;20491;-71
2022/11/28 01:30:22;;;;;;;9.03;7.13;;;;;;;-3.81;98.85;103415.38;4975269;28;20030;-71
2022/11/28 01:32:48;;;;;;;8.03;6.20;;;;;;;-3.83;99.09;103411.91;4975142;28;20041;-71
2022/11/28 01:35:13;;;;;;;10.90;6.67;;;;;;;-3.84;99.22;103410.16;4957604;28;20208;-71
2022/11/28 01:37:39;;;;;;;8.57;6.70;;;;;;;-3.82;98.76;103413.63;4975001;28;20069;-71
2022/11/28 01:40:05;;;;;;;9.27;6.47;;;;;;;-3.85;98.49;103413.66;4975131;28;20102;-71
2022/11/28 01:42:31;;;;;;;8.43;6.20;;;;;;;-3.85;98.65;103409.31;4975168;28;20035;-71
2022/11/28 01:45:04;;;;;;;11.77;8.27;;;;;;;-3.90;98.67;103408.47;4974722;28;20082;-73
2022/11/28 01:47:31;;;;;;;10.25;8.02;;;;;;;-3.97;98.87;103395.47;4974724;28;20030;-71
2022/11/28 01:49:59;;;;;;;8.88;6.32;;;;;;;-3.76;99.03;103413.59;4974219;28;20043;-70
2022/11/28 01:52:25;;;;;;;7.90;6.10;;;;;;;-3.72;98.98;103410.16;4974490;28;20406;-72
2022/11/28 01:54:56;;;;;;;12.43;7.40;;;;;;;-3.66;98.18;103410.09;4974860;28;20042;-72
2022/11/28 01:57:24;;;;;;;8.65;6.57;;;;;;;-3.73;98.33;103413.63;4974647;28;20033;-72
2022/11/28 02:00:08;;;;;;;8.23;6.05;;;;;;;-3.75;98.84;103410.16;4975022;28;20038;-71
2022/11/28 02:02:40;;;;;;;10.20;6.97;;;;;;;-3.79;98.05;103408.41;4975083;28;20081;-70
2022/11/28 02:05:07;;;;;;;11.00;7.53;;;;;;;-3.88;98.64;103411.94;4974698;28;20082;-72
2022/11/28 02:07:36;;;;;;;10.05;7.75;;;;;;;-3.95;98.86;103411.97;4974516;28;20129;-72
2022/11/28 02:10:06;;;;;;;11.43;7.93;;;;;;;-3.94;99.83;103418.91;4974437;28;20035;-71
2022/11/28 02:12:53;;;;;;;10.88;8.48;;;;;;;-3.99;99.37;103423.25;4974120;28;20469;-71
2022/11/28 02:15:28;;;;;;;11.23;8.30;;;;;;;-4.01;99.78;103419.78;4974299;28;20058;-71
2022/11/28 02:18:30;;;;;;;12.85;9.52;;;;;;;-3.95;99.16;103417.16;4974240;28;20039;-71
2022/11/28 02:21:23;;;;;;;14.35;9.52;;;;;;;-3.96;98.59;103428.44;4974465;28;20470;-72
2022/11/28 02:23:49;;;;;;;14.65;9.85;;;;;;;-4.04;99.65;103423.28;4976020;28;20027;-70
2022/11/28 02:26:14;;;;;;;13.17;8.63;;;;;;;-4.03;99.69;103424.13;4975110;28;20033;-71
2022/11/28 02:28:52;;;;;;;13.10;9.13;;;;;;;-3.95;99.62;103427.56;4974035;28;20031;-71
2022/11/28 02:31:55;;;;;;;11.05;8.10;;;;;;;-3.99;99.42;103425.88;4974107;28;20043;-71
2022/11/28 02:34:38;;;;;;;12.05;8.85;;;;;;;-3.98;99.64;103430.19;4974065;28;20031;-70
2022/11/28 02:37:14;;;;;;;14.98;8.50;;;;;;;-4.14;98.49;103404.19;4988960;28;20026;-72
2022/11/28 02:39:49;;;;;;;11.45;9.07;;;;;;;-4.15;98.75;103419.81;4973922;28;20057;-72
2022/11/28 02:42:26;;;;;;;10.68;8.48;;;;;;;-4.24;99.26;103425.03;4974070;28;20031;-72
2022/11/28 02:44:59;;;;;;;10.90;8.77;;;;;;;-4.28;99.57;103420.72;4973850;28;20030;-72
2022/11/28 02:47:32;;;;;;;11.55;9.75;;;;;;;-4.18;100.00;103430.22;4956447;28;20082;-71
2022/11/28 02:50:08;;;;;;;14.35;9.02;;;;;;;-4.19;100.00;103426.75;4973581;28;20458;-72
2022/11/28 02:52:39;;;;;;;11.02;7.75;;;;;;;-4.18;99.49;103420.69;4973848;28;20405;-72
2022/11/28 02:55:06;;;;;;;10.90;8.23;;;;;;;-4.19;98.73;103424.16;4973769;28;20027;-72
2022/11/28 02:57:46;;;;;;;11.38;8.35;;;;;;;-4.23;99.51;103419.84;4973569;28;20045;-71
2022/11/28 03:00:29;;;;;;;11.98;7.53;;;;;;;-4.26;100.00;103432.00;4973615;28;20030;-71
2022/11/28 03:03:26;;;;;;;11.70;8.10;;;;;;;-4.33;99.85;103435.47;4973790;28;20034;-72
2022/11/28 03:06:10;;;;;;;11.48;9.10;;;;;;;-4.32;100.00;103434.59;4973786;28;20083;-72
2022/11/28 03:09:03;;;;;;;11.52;9.43;;;;;;;-4.27;100.00;103433.72;4973475;28;20035;-72
2022/11/28 03:11:51;;;;;;;12.13;9.10;;;;;;;-4.32;100.00;103432.88;4973856;28;20489;-73
2022/11/28 03:14:38;;;;;;;9.20;7.93;;;;;;;-4.37;100.00;103445.00;4973532;28;20118;-72
2022/11/28 03:17:23;;;;;;;12.13;8.50;;;;;;;-4.32;100.00;103448.50;4973739;28;20053;-71
2022/11/28 03:20:21;;;;;;;10.68;8.43;;;;;;;-4.33;100.00;103451.97;4973541;28;20034;-71
2022/11/28 03:23:21;;;;;;;15.75;8.70;;;;;;;-4.37;100.00;103453.66;4973723;28;20031;-71
2022/11/28 03:25:52;;;;;;;13.45;9.10;;;;;;;-4.28;99.62;103450.22;4973741;28;20084;-71
2022/11/28 03:28:24;;;;;;;8.10;7.22;;;;;;;-4.38;98.86;103451.94;4973500;28;20030;-72
2022/11/28 03:31:02;;;;;;;9.45;7.88;;;;;;;-4.49;99.65;103455.41;4973473;28;20066;-71
2022/11/28 03:33:33;;;;;;;11.77;7.55;;;;;;;-4.53;100.00;103454.56;4974309;28;20030;-72
2022/11/28 03:36:12;;;;;;;11.15;7.35;;;;;;;-4.50;100.00;103453.69;4974356;28;20031;-72
2022/11/28 03:38:43;;;;;;;8.63;7.70;;;;;;;-4.45;99.84;103463.22;4975352;28;20035;-71
2022/11/28 03:41:37;;;;;;;8.93;6.97;;;;;;;-4.40;100.00;103455.41;4987251;28;20038;-71
2022/11/28 03:44:06;;;;;;;12.38;8.45;;;;;;;-4.39;99.30;103463.22;4997318;28;20043;-71
2022/11/28 03:46:40;;;;;;;16.10;8.75;;;;;;;-4.45;99.74;103451.94;4995999;28;20038;-72
2022/11/28 03:49:08;;;;;;;12.60;7.57;;;;;;;-4.47;99.97;103462.34;4992890;28;20035;-72
2022/11/28 03:51:57;;;;;;;9.45;7.47;;;;;;;-4.92;99.68;103413.78;4973911;28;20027;-74
2022/11/28 03:54:31;;;;;;;10.00;6.43;;;;;;;-4.70;100.00;103464.94;4973475;28;20142;-72
2022/11/28 03:57:24;;;;;;;8.27;6.28;;;;;;;-4.63;100.00;103463.22;4973511;28;20070;-72
2022/11/28 03:59:52;;;;;;;8.68;7.00;;;;;;;-4.68;100.00;103459.75;4968827;28;20034;-73
2022/11/28 04:02:22;;;;;;;9.02;6.65;;;;;;;-4.71;100.00;103464.94;4955965;28;20066;-72
2022/11/28 04:04:48;;;;;;;11.55;8.73;;;;;;;-4.67;100.00;103470.16;4972701;28;20055;-72
2022/11/28 04:07:21;;;;;;;12.60;7.50;;;;;;;-4.59;100.00;103474.50;4955432;28;20430;-73
2022/11/28 04:10:21;;;;;;;10.52;8.20;;;;;;;-4.60;100.00;103472.78;4972949;28;20134;-72
2022/11/28 04:13:12;;;;;;;9.40;7.13;;;;;;;-4.64;100.00;103465.81;4973073;28;20027;-73
2022/11/28 04:15:53;;;;;;;13.48;8.50;;;;;;;-4.64;100.00;103476.22;4976539;28;20038;-73
2022/11/28 04:18:50;;;;;;;11.50;7.43;;;;;;;-4.62;100.00;103479.72;4977330;28;20038;-78
2022/11/28 04:21:41;;;;;;;12.00;8.23;;;;;;;-4.60;100.00;103480.56;4959520;28;20030;-77
2022/11/28 04:24:22;;;;;;;8.40;7.35;;;;;;;-4.55;100.00;103478.84;4976907;28;20419;-75
2022/11/28 04:26:53;;;;;;;8.90;6.95;;;;;;;-4.72;100.00;103458.88;4976515;28;20066;-74
2022/11/28 04:29:22;;;;;;;11.13;7.43;;;;;;;-4.71;100.00;103476.22;4976350;28;20039;-75
2022/11/28 04:31:52;;;;;;;13.67;8.33;;;;;;;-4.72;100.00;103481.41;4976281;28;20035;-72
2022/11/28 04:34:20;;;;;;;17.90;8.52;;;;;;;-4.78;100.00;103471.88;4976373;28;20257;-72
2022/11/28 04:36:48;;;;;;;9.80;7.95;;;;;;;-4.99;100.00;103440.66;4979298;28;20085;-71
2022/11/28 04:39:20;;;;;;;12.00;7.65;;;;;;;-4.73;100.00;103493.53;4976989;28;20495;-72
2022/11/28 04:41:52;;;;;;;11.00;7.57;;;;;;;-4.73;100.00;103492.69;4976101;28;20121;-74
2022/11/28 04:44:26;;;;;;;12.18;8.50;;;;;;;-4.74;100.00;103491.81;4958964;28;20034;-73
2022/11/28 04:46:55;;;;;;;12.15;8.52;;;;;;;-4.64;100.00;103494.41;4975517;28;20348;-76
2022/11/28 04:49:22;;;;;;;;;;;;;;;-4.63;100.00;103496.16;4976605;28;20035;-70
2022/11/28 04:52:13;;;;;;;10.18;7.35;;;;;;;-4.67;100.00;103490.94;4976031;28;19917;-71
2022/11/28 04:54:52;;;;;;;13.13;8.70;;;;;;;-4.60;100.00;103498.78;4975671;28;20034;-71
2022/11/28 04:57:38;;;;;;;9.85;7.05;;;;;;;-4.59;100.00;103500.50;4975497;28;20636;-72
2022/11/28 05:00:09;;;;;;;10.77;7.68;;;;;;;-4.67;100.00;103488.34;4975598;28;20027;-71
2022/11/28 05:02:36;;;;;;;12.85;8.80;;;;;;;-4.76;100.00;103483.16;4975573;28;20064;-71
2022/11/28 05:05:16;;;;;;;14.55;8.63;;;;;;;-4.65;100.00;103495.28;4975342;28;20046;-72
2022/11/28 05:07:43;;;;;;;16.25;9.73;;;;;;;-4.76;100.00;103477.06;4975323;28;20137;-71
2022/11/28 05:10:10;;;;;;;14.10;9.10;;;;;;;-4.72;100.00;103490.06;4975142;28;20435;-71
2022/11/28 05:12:36;;;;;;;13.05;9.38;;;;;;;-4.67;100.00;103490.94;4975731;28;20383;-73
2022/11/28 05:15:02;;;;;;;17.00;10.23;;;;;;;-4.75;100.00;103479.69;4975479;28;20046;-71
2022/11/28 05:17:29;;;;;;;13.73;8.45;;;;;;;-4.69;100.00;103484.00;4975251;28;20018;-71
2022/11/28 05:20:19;;;;;;;11.32;7.88;;;;;;;-4.68;100.00;103481.41;4975617;28;20046;-73
2022/11/28 05:22:45;;;;;;;15.37;8.90;;;;;;;-4.68;100.00;103496.16;4975244;28;20034;-71
2022/11/28 05:25:10;;;;;;;11.00;8.73;;;;;;;-4.72;100.00;103490.06;4990012;28;20027;-71
2022/11/28 05:27:36;;;;;;;15.27;8.53;;;;;;;-4.65;100.00;103492.69;4975494;28;20027;-71
2022/11/28 05:30:02;;;;;;;13.43;7.90;;;;;;;-4.56;100.00;103497.91;4975177;28;20081;-75
2022/11/28 05:32:30;;;;;;;10.02;6.95;;;;;;;-4.53;100.00;103495.31;4974959;28;20092;-74
2022/11/28 05:34:56;;;;;;;14.90;8.40;;;;;;;-4.53;100.00;103500.50;4975066;28;20034;-72
2022/11/28 05:37:22;;;;;;;11.27;8.95;;;;;;;-4.62;100.00;103511.78;4974894;28;20360;-71
2022/11/28 05:39:48;;;;;;;12.63;8.23;;;;;;;-4.68;100.00;103502.22;4975019;28;20037;-74
2022/11/28 05:42:13;;;;;;;12.33;8.43;;;;;;;-4.72;100.00;103499.63;4974858;28;20022;-72
2022/11/28 05:44:39;;;;;;;13.80;8.33;;;;;;;-4.56;100.00;103523.91;4974961;28;20490;-71
2022/11/28 05:47:04;;;;;;;11.13;8.23;;;;;;;-4.57;100.00;103516.97;4974572;28;20026;-73
2022/11/28 05:49:30;;;;;;;10.83;7.97;;;;;;;-4.59;100.00;103522.19;4975063;28;20037;-72
2022/11/28 05:51:55;;;;;;;14.37;8.20;;;;;;;-4.58;100.00;103523.03;4957405;28;20023;-72
2022/11/28 05:54:21;;;;;;;15.40;8.53;;;;;;;-4.58;100.00;103528.25;4974634;28;20109;-72
2022/11/28 05:56:46;;;;;;;12.07;8.97;;;;;;;-4.65;100.00;103514.34;4957468;28;20030;-73
2022/11/28 05:59:12;;;;;;;14.00;9.07;;;;;;;-4.73;100.00;103524.75;4974702;28;20042;-72
2022/11/28 06:01:38;;;;;;;10.00;6.97;;;;;;;-4.66;100.00;103525.63;4956883;28;20058;-72
2022/11/28 06:04:04;;;;;;;12.30;7.75;;;;;;;-4.62;100.00;103527.38;4974123;28;20039;-73
2022/11/28 06:06:33;;;;;;;10.83;7.33;;;;;;;-4.54;100.00;103524.78;4978181;28;20053;-72
2022/11/28 06:08:59;;;;;;;11.95;8.05;;;;;;;-4.59;100.00;103537.78;4992900;28;20093;-71
2022/11/28 06:11:27;;;;;;;10.82;7.47;;;;;;;-4.60;100.00;103527.38;4993672;28;20027;-71
2022/11/28 06:13:53;;;;;;;10.80;7.65;;;;;;;-4.54;100.00;103535.19;4993767;28;20056;-71
2022/11/28 06:16:21;;;;;;;17.07;8.90;;;;;;;-4.83;100.00;103476.22;4992565;28;20094;-73
2022/11/28 06:18:52;;;;;;;11.70;8.50;;;;;;;-4.47;100.00;103542.13;4993038;28;20049;-71
2022/11/28 06:21:19;;;;;;;12.13;8.73;;;;;;;-4.55;100.00;103525.66;4993751;28;20475;-72
2022/11/28 06:23:45;;;;;;;15.98;8.93;;;;;;;-4.51;100.00;103528.25;4993485;28;20039;-71
2022/11/28 06:26:14;;;;;;;11.83;8.13;;;;;;;-4.51;100.00;103524.78;4993635;28;20022;-72
2022/11/28 06:28:40;;;;;;;17.08;9.43;;;;;;;-4.59;100.00;103521.31;4993379;28;20034;-70
2022/11/28 06:31:19;;;;;;;9.98;7.30;;;;;;;-4.49;100.00;103520.44;4993402;28;20525;-71
2022/11/28 06:33:46;;;;;;;13.13;9.35;;;;;;;-4.52;100.00;103528.25;4976298;28;20036;-71
2022/11/28 06:36:13;;;;;;;14.73;9.65;;;;;;;-4.51;100.00;103520.44;4992923;28;20386;-72
2022/11/28 06:38:39;;;;;;;11.88;10.30;;;;;;;-4.59;100.00;103516.97;4993167;28;20034;-71
2022/11/28 06:41:07;;;;;;;18.50;10.90;;;;;;;-4.61;100.00;103528.25;4991927;28;20092;-71
2022/11/28 06:43:32;;;;;;;13.82;9.65;;;;;;;-4.62;100.00;103516.97;4991773;28;20460;-71
2022/11/28 06:45:58;;;;;;;17.30;10.63;;;;;;;-4.51;100.00;103532.59;4993878;28;20170;-73
2022/11/28 06:48:24;;;;;;;14.07;8.93;;;;;;;-4.45;100.00;103527.38;4995237;28;20026;-72
2022/11/28 06:50:50;;;;;;;12.03;8.40;;;;;;;-4.41;100.00;103527.38;4993213;28;20357;-71
2022/11/28 06:53:16;;;;;;;16.27;11.27;;;;;;;-4.46;100.00;103539.53;4992992;28;20458;-72
2022/11/28 06:55:42;;;;;;;15.63;10.27;;;;;;;-4.53;100.00;103537.78;4992851;28;20034;-72
2022/11/28 06:58:08;;;;;;;15.88;10.35;;;;;;;-4.56;100.00;103535.19;4992530;28;20297;-71
2022/11/28 07:00:37;;;;;;;16.85;10.80;;;;;;;-4.52;100.00;103538.66;4993256;28;20034;-71
2022/11/28 07:03:03;;;;;;;18.40;10.00;;;;;;;-4.47;100.00;103540.38;4993234;28;20061;-71
2022/11/28 07:05:31;;;;;;;18.67;10.48;;;;;;;-4.37;100.00;103533.44;4993062;28;20046;-71
2022/11/28 07:07:59;;;;;;;14.25;9.55;;;;;;;-4.49;100.00;103517.84;4992971;28;20458;-73
2022/11/28 07:10:27;;;;;;;19.03;11.73;;;;;;;-4.37;100.00;103534.31;4992977;28;20050;-75
2022/11/28 07:12:57;;;;;;;15.70;10.80;;;;;;;-4.28;100.00;103532.59;4992888;28;20026;-71
2022/11/28 07:15:23;;;;;;;21.40;10.82;;;;;;;-4.30;100.00;103518.72;4992674;28;20476;-71
2022/11/28 07:17:49;;;;;;;13.97;8.43;;;;;;;-4.24;100.00;103516.97;4993030;28;20118;-71
2022/11/28 07:20:15;;;;;;;15.87;11.37;;;;;;;-4.19;100.00;103528.25;4991856;28;20027;-74
2022/11/28 07:22:42;;;;;;;16.93;11.03;;;;;;;-4.20;100.00;103536.06;4992676;28;20042;-70
2022/11/28 07:25:09;;;;;;;15.20;10.43;;;;;;;-4.18;100.00;103540.41;4992705;28;20392;-72
2022/11/28 07:27:34;;;;;;;14.63;9.52;;;;;;;-4.32;100.00;103531.75;4992829;28;20030;-71
2022/11/28 07:30:03;;;;;;;15.93;10.60;;;;;;;-4.35;100.00;103531.72;4991694;28;20508;-73
2022/11/28 07:32:30;;;;;;;15.07;8.50;;;;;;;-4.31;100.00;103537.81;4992853;28;20457;-72
2022/11/28 07:34:56;;;;;;;12.87;9.87;;;;;;;-4.26;100.00;103531.72;4992653;28;22005;-72
2022/11/28 07:37:21;;;;;;;12.57;8.20;;;;;;;-4.39;100.00;103516.97;4992665;28;20080;-71
2022/11/28 07:39:47;;;;;;;14.93;8.27;;;;;;;-4.23;100.00;103542.13;4992561;28;20080;-69
2022/11/28 07:42:12;;;;;;;15.80;10.67;;;;;;;-4.19;100.00;103535.19;4992842;28;20027;-71
2022/11/28 07:44:38;;;;;;;13.40;9.80;;;;;;;-4.26;100.00;103530.88;4992650;28;20041;-72
2022/11/28 07:47:03;;;;;;;16.33;9.00;;;;;;;-4.33;100.00;103530.00;4992521;28;20042;-71
2022/11/28 07:49:29;;;;;;;21.07;10.33;;;;;;;-4.34;100.00;103533.44;4996553;28;20031;-70
2022/11/28 07:51:55;;;;;;;19.03;9.90;;;;;;;-4.39;100.00;103530.84;4979411;28;20030;-72
2022/11/28 07:54:20;;;;;;;16.63;10.17;;;;;;;-4.32;100.00;103542.16;4996974;28;20049;-71
2022/11/28 07:56:46;;;;;;;15.50;9.90;;;;;;;-4.23;100.00;103529.13;4996510;28;20026;-72
2022/11/28 07:59:12;;;;;;;10.90;7.67;;;;;;;-4.19;99.55;103525.66;4996027;28;20030;-73
2022/11/28 08:01:37;;;;;;;9.60;7.00;;;;;;;-4.15;99.26;103524.78;4996391;28;20018;-71
2022/11/28 08:04:06;;;;;;;10.80;7.90;;;;;;;-4.16;99.43;103517.84;4994976;28;20496;-71
2022/11/28 08:06:39;;;;;;;10.02;6.78;;;;;;;-4.07;99.27;103527.38;4995889;28;20324;-72
2022/11/28 08:09:05;;;;;;;13.85;8.10;;;;;;;-4.03;99.13;103528.25;4996523;28;20038;-72
2022/11/28 08:11:32;;;;;;;13.10;9.65;;;;;;;-4.13;98.33;103512.63;4996446;28;20044;-72
2022/11/28 08:13:58;;;;;;;11.77;7.32;;;;;;;-4.13;98.64;103515.22;4996394;28;20100;-72
2022/11/28 08:16:25;;;;;;;19.35;8.52;;;;;;;-4.03;98.83;103530.84;4996972;28;20038;-71
2022/11/28 08:18:51;;;;;;;15.18;7.57;;;;;;;-4.00;98.87;103521.31;4996720;28;20359;-74
2022/11/28 08:21:26;;;;;;;15.00;9.53;;;;;;;-3.98;98.54;103521.31;4997069;28;20061;-72
2022/11/28 08:23:54;;;;;;;31.45;12.93;;;;;;;-3.98;99.12;103516.09;4997117;28;20315;-72
2022/11/28 08:26:22;;;;;;;13.90;9.18;;;;;;;-4.04;99.56;103506.56;4996784;28;20037;-73
2022/11/28 08:28:50;;;;;;;12.25;8.38;;;;;;;-4.00;99.35;103523.91;4995825;28;20073;-71
2022/11/28 08:31:27;;;;;;;11.70;8.60;;;;;;;-3.88;99.32;103533.44;4995679;28;20041;-72
2022/11/28 08:33:55;;;;;;;10.23;8.77;;;;;;;-3.91;98.17;103534.31;4995706;28;20121;-71
2022/11/28 08:36:21;;;;;;;12.45;9.65;;;;;;;-3.91;98.94;103538.63;4978200;28;20034;-71
2022/11/28 08:38:48;;;;;;;13.70;10.05;;;;;;;-3.91;98.18;103530.84;4995842;28;20054;-72
2022/11/28 08:41:16;;;;;;;13.85;9.07;;;;;;;-3.94;98.76;103528.25;4995626;28;20034;-72
2022/11/28 08:43:42;;;;;;;13.52;8.88;;;;;;;-3.93;98.74;103524.75;4996170;28;20038;-72
2022/11/28 08:46:10;;;;;;;11.07;8.13;;;;;;;-3.90;97.66;103529.97;4997401;28;20418;-70
2022/11/28 08:48:38;;;;;;;11.18;8.35;;;;;;;-3.90;97.94;103532.56;4998463;28;20133;-71
2022/11/28 08:51:04;;;;;;;12.80;9.30;;;;;;;-3.84;98.11;103535.16;4995542;28;20486;-70
2022/11/28 08:53:31;;;;;;;21.67;11.25;;;;;;;-3.89;97.62;103529.97;4995911;28;20153;-72
2022/11/28 08:55:57;;;;;;;12.57;9.15;;;;;;;-3.94;97.63;103528.25;4995470;28;20030;-71
2022/11/28 08:58:22;;;;;;;15.20;9.07;;;;;;;-4.03;97.73;103518.72;4996711;28;20026;-70
2022/11/28 09:00:48;;;;;;;13.03;9.13;;;;;;;-4.05;98.21;103530.84;4995766;28;20049;-71
2022/11/28 09:03:15;;;;;;;11.03;8.70;;;;;;;-4.03;98.46;103528.25;4996971;28;20090;-70
2022/11/28 09:05:45;;;;;;;12.77;8.60;;;;;;;-4.03;98.04;103523.06;4996356;28;20141;-71
2022/11/28 09:08:12;;;;;;;10.68;8.73;;;;;;;-3.99;98.58;103527.38;4996525;28;20061;-72
2022/11/28 09:10:39;;;;;;;17.02;10.13;;;;;;;-4.03;98.07;103523.06;4995847;28;20057;-72
2022/11/28 09:13:06;;;;;;;12.32;9.07;;;;;;;-3.99;98.47;103524.78;4994824;28;20355;-75
2022/11/28 09:15:32;;;;;;;12.23;9.18;;;;;;;-3.98;98.09;103527.38;4994674;28;20030;-74
2022/11/28 09:17:58;;;;;;;11.38;8.07;;;;;;;-3.99;98.50;103524.78;4994697;28;20456;-73
2022/11/28 09:20:24;;;;;;;13.02;8.52;;;;;;;-3.96;98.33;103527.38;4995023;28;20030;-73
2022/11/28 09:22:50;;;;;;;12.90;9.23;;;;;;;-3.97;98.59;103530.84;4994435;28;20382;-73
2022/11/28 09:25:40;;;;;;;12.63;9.77;;;;;;;-4.07;98.66;103516.94;4995193;28;20471;-71
2022/11/28 09:28:06;;;;;;;10.37;7.90;;;;;;;-3.97;98.92;103528.25;4994434;28;20129;-70
2022/11/28 09:30:32;;;;;;;12.67;9.07;;;;;;;-3.92;98.90;103529.97;4994740;28;20027;-71
2022/11/28 09:32:57;;;;;;;13.25;8.60;;;;;;;-3.90;97.87;103532.56;4994636;28;20061;-71
2022/11/28 09:35:23;;;;;;;12.93;7.90;;;;;;;-3.94;97.96;103539.50;4994566;28;20130;-72
2022/11/28 09:37:48;;;;;;;13.93;8.87;;;;;;;-4.00;97.89;103534.31;4994524;28;20034;-72
2022/11/28 09:40:23;;;;;;;14.77;10.27;;;;;;;-3.94;98.67;103534.31;4994376;28;20378;-71
2022/11/28 09:42:49;;;;;;;12.45;8.25;;;;;;;-3.91;98.19;103533.44;4994716;28;20029;-71
2022/11/28 09:45:19;;;;;;;11.63;8.90;;;;;;;-3.82;98.76;103549.03;4994437;28;20034;-73
2022/11/28 09:47:55;;;;;;;12.65;9.65;;;;;;;-3.77;98.40;103537.72;4994229;28;20492;-72
2022/11/28 09:50:24;;;;;;;11.38;8.15;;;;;;;-3.66;98.35;103539.47;4994278;28;20076;-71
2022/11/28 09:53:08;;;;;;;;;;;;;;;-3.64;97.35;103538.59;4976847;28;20466;-70
2022/11/28 09:55:50;;;;;;;9.85;7.95;;;;;;;-3.64;97.31;103533.38;4994118;28;19910;-72
2022/11/28 09:59:03;;;;;;;12.23;8.45;;;;;;;-3.71;97.19;103536.88;4993909;28;20378;-72
2022/11/28 10:01:39;;;;;;;12.45;9.55;;;;;;;-3.79;98.49;103536.00;4952537;29;20392;-71
2022/11/28 10:04:24;;;;;;;13.45;8.93;;;;;;;-3.69;97.58;103522.13;4953131;29;20491;-71
2022/11/28 10:07:07;;;;;;;13.48;8.48;;;;;;;-3.68;97.68;103531.66;4982622;28;20054;-71
2022/11/28 10:09:59;;;;;;;14.93;10.35;;;;;;;-3.74;97.73;103523.88;4992957;28;20501;-73
2022/11/28 10:12:36;;;;;;;13.85;9.30;;;;;;;-3.78;97.78;103529.94;4993373;28;20033;-72
2022/11/28 10:15:25;;;;;;;12.52;9.60;;;;;;;-3.76;98.49;103529.09;4994324;28;20029;-72
2022/11/28 10:18:12;;;;;;;11.65;9.10;;;;;;;-3.77;98.18;103527.31;4986379;28;20038;-72
2022/11/28 10:20:42;;;;;;;13.27;8.35;;;;;;;-3.70;98.33;103517.78;4995115;28;20030;-71
2022/11/28 10:23:21;;;;;;;15.02;9.70;;;;;;;-3.60;97.61;103524.69;4995155;28;20027;-72
2022/11/28 10:25:52;;;;;;;13.18;8.90;;;;;;;-3.61;97.61;103522.09;4996693;28;20068;-71
2022/11/28 10:28:25;;;;;;;14.95;11.02;;;;;;;-3.73;97.80;103522.13;4995072;28;20190;-72
2022/11/28 10:31:02;;;;;;;14.20;8.88;;;;;;;-3.86;97.90;103516.94;5014152;28;20041;-71
2022/11/28 10:34:05;;;;;;;13.60;9.10;;;;;;;-3.77;98.10;103531.66;5008903;28;20037;-72
2022/11/28 10:37:00;;;;;;;16.77;9.60;;;;;;;-3.71;97.75;103518.66;5002366;28;20030;-72
2022/11/28 10:39:26;;;;;;;14.07;8.25;;;;;;;-3.79;98.06;103518.63;4986051;28;20038;-72
2022/11/28 10:42:15;;;;;;;11.97;8.60;;;;;;;-3.64;98.47;103512.53;4994260;28;20554;-72
2022/11/28 10:44:44;;;;;;;14.45;9.02;;;;;;;-3.47;98.36;103515.97;4993485;28;20096;-71
2022/11/28 10:47:48;;;;;;;12.05;7.95;;;;;;;-3.42;97.86;103509.88;4993171;28;20091;-71
2022/11/28 10:50:41;;;;;;;13.07;8.80;;;;;;;-3.37;97.83;103516.78;4977382;28;20042;-71
2022/11/28 10:53:45;;;;;;;14.38;9.77;;;;;;;-3.34;97.63;103511.56;4991765;28;20026;-71
2022/11/28 10:56:39;;;;;;;15.63;10.35;;;;;;;-3.31;96.99;103511.56;4990957;28;20080;-72
2022/11/28 10:59:43;;;;;;;12.50;10.00;;;;;;;-3.24;97.69;103515.00;4938499;28;20037;-71
2022/11/28 11:02:20;;;;;;;14.85;9.63;;;;;;;-3.34;97.41;103505.50;4993059;28;20385;-71
2022/11/28 11:04:47;;;;;;;15.25;8.90;;;;;;;-3.29;96.70;103503.72;4992969;28;20141;-72
2022/11/28 11:07:26;;;;;;;18.90;11.63;;;;;;;-3.31;97.10;103521.09;4992910;28;20045;-72
2022/11/28 11:09:51;;;;;;;17.23;10.20;;;;;;;-3.33;96.98;103517.66;4993121;28;20042;-72
2022/11/28 11:12:26;;;;;;;13.13;9.23;;;;;;;-3.36;96.33;103507.25;4992828;28;20038;-72
2022/11/28 11:14:51;;;;;;;14.68;10.20;;;;;;;-3.31;96.43;103526.31;4992896;28;20462;-72
2022/11/28 11:17:36;;;;;;;13.67;9.90;;;;;;;-3.31;96.21;103528.94;4993065;28;20050;-70
2022/11/28 11:20:38;;;;;;;17.00;10.20;;;;;;;-3.29;95.68;103525.44;4992783;28;20023;-70
2022/11/28 11:23:12;;;;;;;16.35;11.25;;;;;;;-3.29;95.82;103535.00;4992110;28;20030;-70
2022/11/28 11:26:04;;;;;;;14.30;10.18;;;;;;;-3.34;96.00;103527.19;4991525;28;20370;-72
2022/11/28 11:28:55;;;;;;;17.27;9.82;;;;;;;-3.25;96.74;103531.50;4993245;28;20053;-70
2022/11/28 11:31:28;;;;;;;16.40;10.43;;;;;;;-3.29;96.26;103535.00;4993129;28;20081;-70
2022/11/28 11:34:05;;;;;;;15.05;9.93;;;;;;;-3.28;95.93;103535.00;4992972;28;20038;-69
2022/11/28 11:36:36;;;;;;;13.80;10.25;;;;;;;-3.18;96.34;103538.41;4992437;28;20030;-71